sensor_id;sensor_type;location;lat;lon;timestamp;P1;durP1;ratioP1;P2;durP2;ratioP2
12218;SDS011;6172;42.646;23.344;2022-09-02T00:01:37;15.30;;;13.38;;
12218;SDS011;6172;42.646;23.344;2022-09-02T00:04:09;16.70;;;13.23;;
12218;SDS011;6172;42.646;23.344;2022-09-02T00:06:39;15.48;;;12.70;;
12218;SDS011;6172;42.646;23.344;2022-09-02T00:09:07;16.33;;;12.98;;
12218;SDS011;6172;42.646;23.344;2022-09-02T00:11:38;15.80;;;13.25;;
12218;SDS011;6172;42.646;23.344;2022-09-02T00:14:12;18.60;;;13.18;;
12218;SDS011;6172;42.646;23.344;2022-09-02T00:16:42;16.55;;;12.82;;
12218;SDS011;6172;42.646;23.344;2022-09-02T00:19:15;15.65;;;13.75;;
12218;SDS011;6172;42.646;23.344;2022-09-02T00:21:46;14.85;;;13.38;;
12218;SDS011;6172;42.646;23.344;2022-09-02T00:24:18;15.98;;;13.48;;
12218;SDS011;6172;42.646;23.344;2022-09-02T00:26:46;15.35;;;13.75;;
12218;SDS011;6172;42.646;23.344;2022-09-02T00:29:15;15.20;;;13.00;;
12218;SDS011;6172;42.646;23.344;2022-09-02T00:31:43;14.57;;;13.07;;
12218;SDS011;6172;42.646;23.344;2022-09-02T00:34:12;15.88;;;13.63;;
12218;SDS011;6172;42.646;23.344;2022-09-02T00:36:39;14.85;;;13.35;;
12218;SDS011;6172;42.646;23.344;2022-09-02T00:39:07;15.80;;;14.10;;
12218;SDS011;6172;42.646;23.344;2022-09-02T00:41:36;15.38;;;13.88;;
12218;SDS011;6172;42.646;23.344;2022-09-02T00:44:06;14.05;;;12.65;;
12218;SDS011;6172;42.646;23.344;2022-09-02T00:46:40;17.15;;;13.90;;
12218;SDS011;6172;42.646;23.344;2022-09-02T00:49:11;16.02;;;12.95;;
12218;SDS011;6172;42.646;23.344;2022-09-02T00:51:43;14.52;;;13.02;;
12218;SDS011;6172;42.646;23.344;2022-09-02T00:54:16;18.10;;;12.85;;
12218;SDS011;6172;42.646;23.344;2022-09-02T00:56:47;14.13;;;12.35;;
12218;SDS011;6172;42.646;23.344;2022-09-02T00:59:19;17.08;;;12.65;;
12218;SDS011;6172;42.646;23.344;2022-09-02T01:01:54;14.55;;;12.80;;
12218;SDS011;6172;42.646;23.344;2022-09-02T01:04:22;14.88;;;12.82;;
12218;SDS011;6172;42.646;23.344;2022-09-02T01:06:50;14.88;;;12.75;;
12218;SDS011;6172;42.646;23.344;2022-09-02T01:09:18;14.13;;;12.57;;
12218;SDS011;6172;42.646;23.344;2022-09-02T01:11:48;15.23;;;13.35;;
12218;SDS011;6172;42.646;23.344;2022-09-02T01:14:19;16.23;;;13.07;;
12218;SDS011;6172;42.646;23.344;2022-09-02T01:16:48;15.98;;;12.63;;
12218;SDS011;6172;42.646;23.344;2022-09-02T01:19:20;14.05;;;12.57;;
12218;SDS011;6172;42.646;23.344;2022-09-02T01:21:51;14.77;;;12.80;;
12218;SDS011;6172;42.646;23.344;2022-09-02T01:24:20;15.02;;;13.38;;
12218;SDS011;6172;42.646;23.344;2022-09-02T01:26:51;14.20;;;12.70;;
12218;SDS011;6172;42.646;23.344;2022-09-02T01:29:22;16.13;;;13.40;;
12218;SDS011;6172;42.646;23.344;2022-09-02T01:31:49;17.52;;;12.85;;
12218;SDS011;6172;42.646;23.344;2022-09-02T01:34:17;15.10;;;13.60;;
12218;SDS011;6172;42.646;23.344;2022-09-02T01:36:45;17.67;;;13.32;;
12218;SDS011;6172;42.646;23.344;2022-09-02T01:39:14;13.38;;;11.57;;
12218;SDS011;6172;42.646;23.344;2022-09-02T01:41:41;13.73;;;11.13;;
12218;SDS011;6172;42.646;23.344;2022-09-02T01:44:09;11.68;;;10.48;;
12218;SDS011;6172;42.646;23.344;2022-09-02T01:46:40;9.95;;;8.85;;
12218;SDS011;6172;42.646;23.344;2022-09-02T01:49:07;9.43;;;8.35;;
12218;SDS011;6172;42.646;23.344;2022-09-02T01:51:35;9.07;;;7.00;;
12218;SDS011;6172;42.646;23.344;2022-09-02T01:54:04;7.88;;;7.07;;
12218;SDS011;6172;42.646;23.344;2022-09-02T01:56:33;8.85;;;7.97;;
12218;SDS011;6172;42.646;23.344;2022-09-02T01:59:00;5.38;;;4.97;;
12218;SDS011;6172;42.646;23.344;2022-09-02T02:01:28;6.35;;;5.18;;
12218;SDS011;6172;42.646;23.344;2022-09-02T02:03:56;5.75;;;5.25;;
12218;SDS011;6172;42.646;23.344;2022-09-02T02:06:23;5.20;;;4.80;;
12218;SDS011;6172;42.646;23.344;2022-09-02T02:08:50;4.95;;;4.47;;
12218;SDS011;6172;42.646;23.344;2022-09-02T02:11:18;5.93;;;5.35;;
12218;SDS011;6172;42.646;23.344;2022-09-02T02:13:48;6.03;;;5.40;;
12218;SDS011;6172;42.646;23.344;2022-09-02T02:16:16;5.10;;;4.47;;
12218;SDS011;6172;42.646;23.344;2022-09-02T02:18:43;4.97;;;4.35;;
12218;SDS011;6172;42.646;23.344;2022-09-02T02:21:10;5.88;;;4.43;;
12218;SDS011;6172;42.646;23.344;2022-09-02T02:23:38;4.55;;;3.97;;
12218;SDS011;6172;42.646;23.344;2022-09-02T02:26:05;7.03;;;4.57;;
12218;SDS011;6172;42.646;23.344;2022-09-02T02:28:34;6.32;;;3.92;;
12218;SDS011;6172;42.646;23.344;2022-09-02T02:31:08;4.13;;;3.65;;
12218;SDS011;6172;42.646;23.344;2022-09-02T02:33:35;5.25;;;4.00;;
12218;SDS011;6172;42.646;23.344;2022-09-02T02:36:02;3.38;;;3.13;;
12218;SDS011;6172;42.646;23.344;2022-09-02T02:38:35;4.28;;;3.20;;
12218;SDS011;6172;42.646;23.344;2022-09-02T02:41:08;3.47;;;3.17;;
12218;SDS011;6172;42.646;23.344;2022-09-02T02:43:36;5.20;;;3.83;;
12218;SDS011;6172;42.646;23.344;2022-09-02T02:46:05;3.78;;;3.47;;
12218;SDS011;6172;42.646;23.344;2022-09-02T02:48:51;4.95;;;3.60;;
12218;SDS011;6172;42.646;23.344;2022-09-02T02:51:31;5.50;;;3.72;;
12218;SDS011;6172;42.646;23.344;2022-09-02T02:53:58;4.18;;;3.63;;
12218;SDS011;6172;42.646;23.344;2022-09-02T02:56:25;3.88;;;3.58;;
12218;SDS011;6172;42.646;23.344;2022-09-02T02:58:52;4.40;;;3.95;;
12218;SDS011;6172;42.646;23.344;2022-09-02T03:01:21;5.38;;;3.95;;
12218;SDS011;6172;42.646;23.344;2022-09-02T03:03:48;5.47;;;4.80;;
12218;SDS011;6172;42.646;23.344;2022-09-02T03:06:16;7.18;;;5.20;;
12218;SDS011;6172;42.646;23.344;2022-09-02T03:08:43;6.88;;;5.22;;
12218;SDS011;6172;42.646;23.344;2022-09-02T03:11:10;6.75;;;5.35;;
12218;SDS011;6172;42.646;23.344;2022-09-02T03:13:38;6.67;;;5.27;;
12218;SDS011;6172;42.646;23.344;2022-09-02T03:16:05;6.40;;;5.80;;
12218;SDS011;6172;42.646;23.344;2022-09-02T03:18:34;7.80;;;6.33;;
12218;SDS011;6172;42.646;23.344;2022-09-02T03:21:01;7.67;;;6.17;;
12218;SDS011;6172;42.646;23.344;2022-09-02T03:23:34;7.60;;;6.27;;
12218;SDS011;6172;42.646;23.344;2022-09-02T03:26:07;7.00;;;6.30;;
12218;SDS011;6172;42.646;23.344;2022-09-02T03:28:36;7.47;;;6.73;;
12218;SDS011;6172;42.646;23.344;2022-09-02T03:31:12;8.80;;;7.35;;
12218;SDS011;6172;42.646;23.344;2022-09-02T03:33:42;7.13;;;6.47;;
12218;SDS011;6172;42.646;23.344;2022-09-02T03:36:17;7.83;;;7.10;;
12218;SDS011;6172;42.646;23.344;2022-09-02T03:38:45;9.00;;;7.33;;
12218;SDS011;6172;42.646;23.344;2022-09-02T03:41:13;8.98;;;7.85;;
12218;SDS011;6172;42.646;23.344;2022-09-02T03:43:43;9.30;;;8.00;;
12218;SDS011;6172;42.646;23.344;2022-09-02T03:46:10;8.90;;;7.60;;
12218;SDS011;6172;42.646;23.344;2022-09-02T03:48:38;9.20;;;8.30;;
12218;SDS011;6172;42.646;23.344;2022-09-02T03:51:10;8.73;;;7.93;;
12218;SDS011;6172;42.646;23.344;2022-09-02T03:53:38;10.97;;;8.10;;
12218;SDS011;6172;42.646;23.344;2022-09-02T03:56:11;11.77;;;8.03;;
12218;SDS011;6172;42.646;23.344;2022-09-02T03:58:41;11.70;;;8.32;;
12218;SDS011;6172;42.646;23.344;2022-09-02T04:01:23;10.50;;;9.40;;
12218;SDS011;6172;42.646;23.344;2022-09-02T04:03:51;9.43;;;8.52;;
12218;SDS011;6172;42.646;23.344;2022-09-02T04:06:27;13.73;;;9.83;;
12218;SDS011;6172;42.646;23.344;2022-09-02T04:08:55;12.10;;;9.60;;
12218;SDS011;6172;42.646;23.344;2022-09-02T04:11:39;14.07;;;9.77;;
12218;SDS011;6172;42.646;23.344;2022-09-02T04:14:08;11.43;;;9.97;;
12218;SDS011;6172;42.646;23.344;2022-09-02T04:16:36;11.45;;;10.02;;
12218;SDS011;6172;42.646;23.344;2022-09-02T04:19:08;12.00;;;10.00;;
12218;SDS011;6172;42.646;23.344;2022-09-02T04:21:39;11.73;;;10.53;;
12218;SDS011;6172;42.646;23.344;2022-09-02T04:24:08;15.73;;;12.40;;
12218;SDS011;6172;42.646;23.344;2022-09-02T04:26:36;12.77;;;10.45;;
12218;SDS011;6172;42.646;23.344;2022-09-02T04:29:05;10.75;;;9.65;;
12218;SDS011;6172;42.646;23.344;2022-09-02T04:31:33;9.93;;;8.95;;
12218;SDS011;6172;42.646;23.344;2022-09-02T04:34:01;16.45;;;12.20;;
12218;SDS011;6172;42.646;23.344;2022-09-02T04:36:31;21.80;;;13.40;;
12218;SDS011;6172;42.646;23.344;2022-09-02T04:39:00;22.95;;;14.05;;
12218;SDS011;6172;42.646;23.344;2022-09-02T04:41:28;16.50;;;11.52;;
12218;SDS011;6172;42.646;23.344;2022-09-02T04:43:57;13.40;;;9.65;;
12218;SDS011;6172;42.646;23.344;2022-09-02T04:46:26;12.73;;;9.98;;
12218;SDS011;6172;42.646;23.344;2022-09-02T04:48:54;13.98;;;10.88;;
12218;SDS011;6172;42.646;23.344;2022-09-02T04:51:24;14.67;;;9.70;;
12218;SDS011;6172;42.646;23.344;2022-09-02T04:53:55;12.95;;;9.43;;
12218;SDS011;6172;42.646;23.344;2022-09-02T04:59:22;9.87;;;8.27;;
12218;SDS011;6172;42.646;23.344;2022-09-02T05:02:03;13.57;;;9.23;;
12218;SDS011;6172;42.646;23.344;2022-09-02T05:04:37;11.75;;;9.77;;
12218;SDS011;6172;42.646;23.344;2022-09-02T05:07:18;9.95;;;8.95;;
12218;SDS011;6172;42.646;23.344;2022-09-02T05:09:46;11.63;;;8.27;;
12218;SDS011;6172;42.646;23.344;2022-09-02T05:12:16;10.82;;;8.40;;
12218;SDS011;6172;42.646;23.344;2022-09-02T05:14:44;10.52;;;8.07;;
12218;SDS011;6172;42.646;23.344;2022-09-02T05:17:13;11.10;;;8.65;;
12218;SDS011;6172;42.646;23.344;2022-09-02T05:19:40;9.63;;;8.63;;
12218;SDS011;6172;42.646;23.344;2022-09-02T05:22:08;10.73;;;9.00;;
12218;SDS011;6172;42.646;23.344;2022-09-02T05:24:35;12.77;;;10.18;;
12218;SDS011;6172;42.646;23.344;2022-09-02T05:27:06;10.35;;;7.80;;
12218;SDS011;6172;42.646;23.344;2022-09-02T05:29:47;8.35;;;7.55;;
12218;SDS011;6172;42.646;23.344;2022-09-02T05:32:15;9.50;;;7.88;;
12218;SDS011;6172;42.646;23.344;2022-09-02T05:34:43;13.27;;;8.93;;
12218;SDS011;6172;42.646;23.344;2022-09-02T05:37:20;11.27;;;10.05;;
12218;SDS011;6172;42.646;23.344;2022-09-02T05:39:56;11.88;;;9.13;;
12218;SDS011;6172;42.646;23.344;2022-09-02T05:42:23;10.80;;;8.50;;
12218;SDS011;6172;42.646;23.344;2022-09-02T05:44:53;9.98;;;8.63;;
12218;SDS011;6172;42.646;23.344;2022-09-02T05:47:21;9.07;;;8.18;;
12218;SDS011;6172;42.646;23.344;2022-09-02T05:49:50;10.57;;;8.55;;
12218;SDS011;6172;42.646;23.344;2022-09-02T05:52:22;12.77;;;9.13;;
12218;SDS011;6172;42.646;23.344;2022-09-02T05:54:49;9.90;;;8.88;;
12218;SDS011;6172;42.646;23.344;2022-09-02T05:57:16;9.43;;;8.52;;
12218;SDS011;6172;42.646;23.344;2022-09-02T05:59:44;11.00;;;8.45;;
12218;SDS011;6172;42.646;23.344;2022-09-02T06:02:23;9.52;;;7.68;;
12218;SDS011;6172;42.646;23.344;2022-09-02T06:04:56;11.25;;;7.38;;
12218;SDS011;6172;42.646;23.344;2022-09-02T06:07:25;14.65;;;9.70;;
12218;SDS011;6172;42.646;23.344;2022-09-02T06:09:55;9.82;;;7.70;;
12218;SDS011;6172;42.646;23.344;2022-09-02T06:12:29;9.27;;;8.35;;
12218;SDS011;6172;42.646;23.344;2022-09-02T06:15:00;10.10;;;8.10;;
12218;SDS011;6172;42.646;23.344;2022-09-02T06:17:30;9.32;;;7.65;;
12218;SDS011;6172;42.646;23.344;2022-09-02T06:19:57;8.65;;;7.72;;
12218;SDS011;6172;42.646;23.344;2022-09-02T06:22:24;11.23;;;8.23;;
12218;SDS011;6172;42.646;23.344;2022-09-02T06:24:51;11.52;;;8.23;;
12218;SDS011;6172;42.646;23.344;2022-09-02T06:27:32;11.85;;;8.85;;
12218;SDS011;6172;42.646;23.344;2022-09-02T06:30:27;11.20;;;7.82;;
12218;SDS011;6172;42.646;23.344;2022-09-02T06:32:59;12.57;;;9.77;;
12218;SDS011;6172;42.646;23.344;2022-09-02T06:35:28;9.98;;;8.77;;
12218;SDS011;6172;42.646;23.344;2022-09-02T06:37:56;8.38;;;7.57;;
12218;SDS011;6172;42.646;23.344;2022-09-02T06:40:24;8.18;;;7.10;;
12218;SDS011;6172;42.646;23.344;2022-09-02T06:42:52;9.65;;;7.28;;
12218;SDS011;6172;42.646;23.344;2022-09-02T06:45:19;9.18;;;7.07;;
12218;SDS011;6172;42.646;23.344;2022-09-02T06:47:48;11.07;;;8.15;;
12218;SDS011;6172;42.646;23.344;2022-09-02T06:50:25;7.20;;;6.55;;
12218;SDS011;6172;42.646;23.344;2022-09-02T06:52:52;7.25;;;6.40;;
12218;SDS011;6172;42.646;23.344;2022-09-02T06:55:19;8.43;;;6.50;;
12218;SDS011;6172;42.646;23.344;2022-09-02T06:57:46;6.70;;;6.10;;
12218;SDS011;6172;42.646;23.344;2022-09-02T07:00:27;7.78;;;7.05;;
12218;SDS011;6172;42.646;23.344;2022-09-02T07:02:54;7.68;;;6.78;;
12218;SDS011;6172;42.646;23.344;2022-09-02T07:05:37;9.60;;;7.63;;
12218;SDS011;6172;42.646;23.344;2022-09-02T07:08:04;9.80;;;7.68;;
12218;SDS011;6172;42.646;23.344;2022-09-02T07:10:36;7.55;;;6.85;;
12218;SDS011;6172;42.646;23.344;2022-09-02T07:13:08;7.50;;;6.75;;
12218;SDS011;6172;42.646;23.344;2022-09-02T07:15:49;9.25;;;7.10;;
12218;SDS011;6172;42.646;23.344;2022-09-02T07:18:31;7.25;;;6.55;;
12218;SDS011;6172;42.646;23.344;2022-09-02T07:21:10;6.38;;;5.88;;
12218;SDS011;6172;42.646;23.344;2022-09-02T07:23:38;6.90;;;6.20;;
12218;SDS011;6172;42.646;23.344;2022-09-02T07:26:09;7.97;;;6.38;;
12218;SDS011;6172;42.646;23.344;2022-09-02T07:28:38;6.85;;;6.25;;
12218;SDS011;6172;42.646;23.344;2022-09-02T07:31:07;7.97;;;6.60;;
12218;SDS011;6172;42.646;23.344;2022-09-02T07:33:35;8.13;;;6.05;;
12218;SDS011;6172;42.646;23.344;2022-09-02T07:36:05;7.35;;;6.38;;
12218;SDS011;6172;42.646;23.344;2022-09-02T07:38:58;9.80;;;6.97;;
12218;SDS011;6172;42.646;23.344;2022-09-02T07:41:27;7.68;;;6.95;;
12218;SDS011;6172;42.646;23.344;2022-09-02T07:43:54;7.05;;;6.35;;
12218;SDS011;6172;42.646;23.344;2022-09-02T07:46:23;6.80;;;5.88;;
12218;SDS011;6172;42.646;23.344;2022-09-02T07:48:56;8.25;;;7.45;;
12218;SDS011;6172;42.646;23.344;2022-09-02T07:51:37;9.90;;;7.13;;
12218;SDS011;6172;42.646;23.344;2022-09-02T07:54:35;11.93;;;6.63;;
12218;SDS011;6172;42.646;23.344;2022-09-02T07:57:04;8.32;;;6.93;;
12218;SDS011;6172;42.646;23.344;2022-09-02T07:59:43;6.90;;;5.97;;
12218;SDS011;6172;42.646;23.344;2022-09-02T08:02:26;6.95;;;6.05;;
12218;SDS011;6172;42.646;23.344;2022-09-02T08:05:10;8.70;;;5.75;;
12218;SDS011;6172;42.646;23.344;2022-09-02T08:07:38;8.60;;;5.93;;
12218;SDS011;6172;42.646;23.344;2022-09-02T08:13:24;5.82;;;5.30;;
12218;SDS011;6172;42.646;23.344;2022-09-02T08:15:51;21.23;;;6.68;;
12218;SDS011;6172;42.646;23.344;2022-09-02T08:18:22;18.17;;;7.13;;
12218;SDS011;6172;42.646;23.344;2022-09-02T08:21:04;11.38;;;7.05;;
12218;SDS011;6172;42.646;23.344;2022-09-02T08:23:32;11.25;;;6.32;;
12218;SDS011;6172;42.646;23.344;2022-09-02T08:26:02;10.98;;;6.93;;
12218;SDS011;6172;42.646;23.344;2022-09-02T08:28:34;8.07;;;6.93;;
12218;SDS011;6172;42.646;23.344;2022-09-02T08:31:04;8.38;;;6.30;;
12218;SDS011;6172;42.646;23.344;2022-09-02T08:33:32;9.63;;;6.00;;
12218;SDS011;6172;42.646;23.344;2022-09-02T08:36:00;7.18;;;6.35;;
12218;SDS011;6172;42.646;23.344;2022-09-02T08:38:29;9.27;;;6.35;;
12218;SDS011;6172;42.646;23.344;2022-09-02T08:41:10;11.07;;;6.93;;
12218;SDS011;6172;42.646;23.344;2022-09-02T08:46:57;7.20;;;6.50;;
12218;SDS011;6172;42.646;23.344;2022-09-02T08:49:32;8.13;;;7.32;;
12218;SDS011;6172;42.646;23.344;2022-09-02T08:52:03;8.00;;;6.88;;
12218;SDS011;6172;42.646;23.344;2022-09-02T08:54:33;7.68;;;6.95;;
12218;SDS011;6172;42.646;23.344;2022-09-02T08:57:11;8.27;;;7.47;;
12218;SDS011;6172;42.646;23.344;2022-09-02T08:59:39;10.82;;;8.02;;
12218;SDS011;6172;42.646;23.344;2022-09-02T09:05:22;9.50;;;8.23;;
12218;SDS011;6172;42.646;23.344;2022-09-02T09:08:09;13.50;;;9.05;;
12218;SDS011;6172;42.646;23.344;2022-09-02T09:10:49;9.82;;;8.00;;
12218;SDS011;6172;42.646;23.344;2022-09-02T09:13:42;13.05;;;8.57;;
12218;SDS011;6172;42.646;23.344;2022-09-02T09:16:45;11.88;;;7.97;;
12218;SDS011;6172;42.646;23.344;2022-09-02T09:19:35;9.18;;;8.18;;
12218;SDS011;6172;42.646;23.344;2022-09-02T09:22:10;12.98;;;9.40;;
12218;SDS011;6172;42.646;23.344;2022-09-02T09:24:41;14.23;;;8.57;;
12218;SDS011;6172;42.646;23.344;2022-09-02T09:27:12;10.30;;;8.65;;
12218;SDS011;6172;42.646;23.344;2022-09-02T09:29:40;10.40;;;8.18;;
12218;SDS011;6172;42.646;23.344;2022-09-02T09:32:24;10.48;;;9.13;;
12218;SDS011;6172;42.646;23.344;2022-09-02T09:34:58;12.15;;;9.50;;
12218;SDS011;6172;42.646;23.344;2022-09-02T09:37:31;9.88;;;8.60;;
12218;SDS011;6172;42.646;23.344;2022-09-02T09:40:22;9.27;;;8.35;;
12218;SDS011;6172;42.646;23.344;2022-09-02T09:42:57;9.68;;;7.95;;
12218;SDS011;6172;42.646;23.344;2022-09-02T09:45:38;9.48;;;8.55;;
12218;SDS011;6172;42.646;23.344;2022-09-02T09:51:08;10.02;;;8.73;;
12218;SDS011;6172;42.646;23.344;2022-09-02T09:53:39;10.88;;;8.55;;
12218;SDS011;6172;42.646;23.344;2022-09-02T09:56:07;12.35;;;9.85;;
12218;SDS011;6172;42.646;23.344;2022-09-02T09:58:51;10.85;;;8.80;;
12218;SDS011;6172;42.646;23.344;2022-09-02T10:01:19;11.32;;;8.55;;
12218;SDS011;6172;42.646;23.344;2022-09-02T10:03:49;12.02;;;10.55;;
12218;SDS011;6172;42.646;23.344;2022-09-02T10:06:19;12.05;;;10.45;;
12218;SDS011;6172;42.646;23.344;2022-09-02T10:08:54;11.48;;;9.85;;
12218;SDS011;6172;42.646;23.344;2022-09-02T10:11:37;11.68;;;10.13;;
12218;SDS011;6172;42.646;23.344;2022-09-02T10:14:05;12.93;;;9.95;;
12218;SDS011;6172;42.646;23.344;2022-09-02T10:16:41;11.55;;;9.60;;
12218;SDS011;6172;42.646;23.344;2022-09-02T10:19:23;13.60;;;10.35;;
12218;SDS011;6172;42.646;23.344;2022-09-02T10:22:31;11.85;;;9.30;;
12218;SDS011;6172;42.646;23.344;2022-09-02T10:25:19;12.82;;;9.80;;
12218;SDS011;6172;42.646;23.344;2022-09-02T10:27:52;12.07;;;9.18;;
12218;SDS011;6172;42.646;23.344;2022-09-02T10:30:29;13.85;;;10.00;;
12218;SDS011;6172;42.646;23.344;2022-09-02T10:33:18;9.88;;;8.90;;
12218;SDS011;6172;42.646;23.344;2022-09-02T10:35:55;11.90;;;10.18;;
12218;SDS011;6172;42.646;23.344;2022-09-02T10:38:33;10.57;;;9.27;;
12218;SDS011;6172;42.646;23.344;2022-09-02T10:41:11;10.45;;;9.45;;
12218;SDS011;6172;42.646;23.344;2022-09-02T10:47:05;11.10;;;9.98;;
12218;SDS011;6172;42.646;23.344;2022-09-02T10:49:47;13.48;;;10.25;;
12218;SDS011;6172;42.646;23.344;2022-09-02T10:55:14;15.40;;;10.52;;
12218;SDS011;6172;42.646;23.344;2022-09-02T10:57:56;13.35;;;10.63;;
12218;SDS011;6172;42.646;23.344;2022-09-02T11:00:28;12.23;;;10.20;;
12218;SDS011;6172;42.646;23.344;2022-09-02T11:03:00;12.05;;;10.75;;
12218;SDS011;6172;42.646;23.344;2022-09-02T11:05:40;12.80;;;10.93;;
12218;SDS011;6172;42.646;23.344;2022-09-02T11:08:30;12.30;;;11.05;;
12218;SDS011;6172;42.646;23.344;2022-09-02T11:11:18;14.45;;;11.27;;
12218;SDS011;6172;42.646;23.344;2022-09-02T11:14:04;16.70;;;10.73;;
12218;SDS011;6172;42.646;23.344;2022-09-02T11:16:43;12.18;;;9.85;;
12218;SDS011;6172;42.646;23.344;2022-09-02T11:19:15;12.45;;;11.18;;
12218;SDS011;6172;42.646;23.344;2022-09-02T11:21:51;13.05;;;11.65;;
12218;SDS011;6172;42.646;23.344;2022-09-02T11:24:30;11.70;;;10.60;;
12218;SDS011;6172;42.646;23.344;2022-09-02T11:27:06;13.93;;;11.40;;
12218;SDS011;6172;42.646;23.344;2022-09-02T11:29:43;16.75;;;12.52;;
12218;SDS011;6172;42.646;23.344;2022-09-02T11:32:22;12.38;;;11.10;;
12218;SDS011;6172;42.646;23.344;2022-09-02T11:34:55;11.88;;;10.68;;
12218;SDS011;6172;42.646;23.344;2022-09-02T11:37:26;13.40;;;12.00;;
12218;SDS011;6172;42.646;23.344;2022-09-02T11:40:01;12.68;;;11.40;;
12218;SDS011;6172;42.646;23.344;2022-09-02T11:42:46;13.07;;;10.65;;
12218;SDS011;6172;42.646;23.344;2022-09-02T11:48:40;11.65;;;10.55;;
12218;SDS011;6172;42.646;23.344;2022-09-02T11:54:25;13.15;;;11.75;;
12218;SDS011;6172;42.646;23.344;2022-09-02T11:56:59;13.75;;;12.15;;
12218;SDS011;6172;42.646;23.344;2022-09-02T12:02:31;14.13;;;11.00;;
12218;SDS011;6172;42.646;23.344;2022-09-02T12:11:38;13.43;;;11.52;;
12218;SDS011;6172;42.646;23.344;2022-09-02T12:29:51;13.52;;;10.98;;
12218;SDS011;6172;42.646;23.344;2022-09-02T12:35:30;14.38;;;11.23;;
12218;SDS011;6172;42.646;23.344;2022-09-02T12:38:29;14.73;;;12.88;;
12218;SDS011;6172;42.646;23.344;2022-09-02T12:43:56;15.48;;;12.13;;
12218;SDS011;6172;42.646;23.344;2022-09-02T12:46:54;14.48;;;12.98;;
12218;SDS011;6172;42.646;23.344;2022-09-02T12:49:34;16.23;;;12.48;;
12218;SDS011;6172;42.646;23.344;2022-09-02T12:52:07;14.48;;;12.73;;
12218;SDS011;6172;42.646;23.344;2022-09-02T12:54:40;13.52;;;12.15;;
12218;SDS011;6172;42.646;23.344;2022-09-02T12:57:13;14.02;;;12.63;;
12218;SDS011;6172;42.646;23.344;2022-09-02T12:59:42;14.45;;;12.43;;
12218;SDS011;6172;42.646;23.344;2022-09-02T13:02:15;17.00;;;12.98;;
12218;SDS011;6172;42.646;23.344;2022-09-02T13:05:01;15.90;;;12.68;;
12218;SDS011;6172;42.646;23.344;2022-09-02T13:10:54;15.55;;;13.95;;
12218;SDS011;6172;42.646;23.344;2022-09-02T13:13:43;16.13;;;12.77;;
12218;SDS011;6172;42.646;23.344;2022-09-02T13:16:28;15.32;;;12.85;;
12218;SDS011;6172;42.646;23.344;2022-09-02T13:19:13;17.60;;;13.60;;
12218;SDS011;6172;42.646;23.344;2022-09-02T13:24:58;15.07;;;13.15;;
12218;SDS011;6172;42.646;23.344;2022-09-02T13:27:40;15.07;;;13.52;;
12218;SDS011;6172;42.646;23.344;2022-09-02T13:30:30;15.57;;;14.00;;
12218;SDS011;6172;42.646;23.344;2022-09-02T13:33:16;15.95;;;14.25;;
12218;SDS011;6172;42.646;23.344;2022-09-02T13:35:45;15.88;;;14.23;;
12218;SDS011;6172;42.646;23.344;2022-09-02T13:38:21;17.73;;;15.18;;
12218;SDS011;6172;42.646;23.344;2022-09-02T13:40:51;18.42;;;16.42;;
12218;SDS011;6172;42.646;23.344;2022-09-02T13:43:22;17.20;;;15.48;;
12218;SDS011;6172;42.646;23.344;2022-09-02T13:46:04;19.13;;;15.63;;
12218;SDS011;6172;42.646;23.344;2022-09-02T13:48:36;18.77;;;16.80;;
12218;SDS011;6172;42.646;23.344;2022-09-02T13:51:23;19.63;;;17.05;;
12218;SDS011;6172;42.646;23.344;2022-09-02T13:53:52;17.45;;;15.60;;
12218;SDS011;6172;42.646;23.344;2022-09-02T13:56:41;18.67;;;16.23;;
12218;SDS011;6172;42.646;23.344;2022-09-02T13:59:33;13.52;;;11.93;;
12218;SDS011;6172;42.646;23.344;2022-09-02T14:02:22;13.85;;;9.70;;
12218;SDS011;6172;42.646;23.344;2022-09-02T14:05:09;10.98;;;8.20;;
12218;SDS011;6172;42.646;23.344;2022-09-02T14:07:43;7.72;;;6.90;;
12218;SDS011;6172;42.646;23.344;2022-09-02T14:10:14;12.05;;;9.02;;
12218;SDS011;6172;42.646;23.344;2022-09-02T14:12:50;9.77;;;8.73;;
12218;SDS011;6172;42.646;23.344;2022-09-02T14:15:25;13.32;;;9.15;;
12218;SDS011;6172;42.646;23.344;2022-09-02T14:18:06;11.25;;;9.73;;
12218;SDS011;6172;42.646;23.344;2022-09-02T14:20:35;13.10;;;11.27;;
12218;SDS011;6172;42.646;23.344;2022-09-02T14:23:06;12.25;;;10.98;;
12218;SDS011;6172;42.646;23.344;2022-09-02T14:25:47;16.55;;;11.98;;
12218;SDS011;6172;42.646;23.344;2022-09-02T14:28:18;13.43;;;11.48;;
12218;SDS011;6172;42.646;23.344;2022-09-02T14:30:53;14.52;;;11.80;;
12218;SDS011;6172;42.646;23.344;2022-09-02T14:33:24;16.63;;;11.95;;
12218;SDS011;6172;42.646;23.344;2022-09-02T14:35:54;13.55;;;11.90;;
12218;SDS011;6172;42.646;23.344;2022-09-02T14:38:27;15.98;;;13.25;;
12218;SDS011;6172;42.646;23.344;2022-09-02T14:41:03;14.02;;;12.23;;
12218;SDS011;6172;42.646;23.344;2022-09-02T14:43:41;16.55;;;13.05;;
12218;SDS011;6172;42.646;23.344;2022-09-02T14:46:13;13.75;;;12.32;;
12218;SDS011;6172;42.646;23.344;2022-09-02T14:48:51;13.15;;;11.77;;
12218;SDS011;6172;42.646;23.344;2022-09-02T14:51:21;13.52;;;12.20;;
12218;SDS011;6172;42.646;23.344;2022-09-02T14:53:52;16.30;;;13.57;;
12218;SDS011;6172;42.646;23.344;2022-09-02T14:59:12;15.43;;;12.77;;
12218;SDS011;6172;42.646;23.344;2022-09-02T15:01:40;15.07;;;12.90;;
12218;SDS011;6172;42.646;23.344;2022-09-02T15:04:10;17.10;;;14.15;;
12218;SDS011;6172;42.646;23.344;2022-09-02T15:06:38;15.73;;;13.88;;
12218;SDS011;6172;42.646;23.344;2022-09-02T15:09:08;16.60;;;14.40;;
12218;SDS011;6172;42.646;23.344;2022-09-02T15:11:38;16.77;;;14.98;;
12218;SDS011;6172;42.646;23.344;2022-09-02T15:14:07;20.95;;;15.63;;
12218;SDS011;6172;42.646;23.344;2022-09-02T15:16:36;18.27;;;16.35;;
12218;SDS011;6172;42.646;23.344;2022-09-02T15:19:03;18.30;;;15.75;;
12218;SDS011;6172;42.646;23.344;2022-09-02T15:21:30;15.68;;;13.68;;
12218;SDS011;6172;42.646;23.344;2022-09-02T15:23:57;15.88;;;12.23;;
12218;SDS011;6172;42.646;23.344;2022-09-02T15:26:35;13.88;;;12.02;;
12218;SDS011;6172;42.646;23.344;2022-09-02T15:29:02;14.25;;;12.55;;
12218;SDS011;6172;42.646;23.344;2022-09-02T15:31:29;14.35;;;12.52;;
12218;SDS011;6172;42.646;23.344;2022-09-02T15:33:57;17.83;;;14.32;;
12218;SDS011;6172;42.646;23.344;2022-09-02T15:36:24;18.05;;;15.35;;
12218;SDS011;6172;42.646;23.344;2022-09-02T15:38:52;22.95;;;16.80;;
12218;SDS011;6172;42.646;23.344;2022-09-02T15:41:20;20.33;;;15.63;;
12218;SDS011;6172;42.646;23.344;2022-09-02T15:43:51;22.33;;;16.65;;
12218;SDS011;6172;42.646;23.344;2022-09-02T15:46:19;19.02;;;15.55;;
12218;SDS011;6172;42.646;23.344;2022-09-02T15:48:47;19.38;;;16.23;;
12218;SDS011;6172;42.646;23.344;2022-09-02T15:51:15;20.08;;;16.05;;
12218;SDS011;6172;42.646;23.344;2022-09-02T15:53:44;20.05;;;16.02;;
12218;SDS011;6172;42.646;23.344;2022-09-02T15:56:17;20.05;;;17.92;;
12218;SDS011;6172;42.646;23.344;2022-09-02T15:58:54;19.17;;;16.58;;
12218;SDS011;6172;42.646;23.344;2022-09-02T16:01:23;19.48;;;16.65;;
12218;SDS011;6172;42.646;23.344;2022-09-02T16:03:51;20.65;;;16.65;;
12218;SDS011;6172;42.646;23.344;2022-09-02T16:06:18;18.30;;;16.25;;
12218;SDS011;6172;42.646;23.344;2022-09-02T16:08:45;18.25;;;15.73;;
12218;SDS011;6172;42.646;23.344;2022-09-02T16:11:14;16.73;;;12.07;;
12218;SDS011;6172;42.646;23.344;2022-09-02T16:13:41;14.93;;;11.20;;
12218;SDS011;6172;42.646;23.344;2022-09-02T16:16:12;13.48;;;11.13;;